Espergaerde, Denmark
Current Conditions -  °F | °C
As of 5:50 PM on Friday 28 Nov 2014 (Local Time) from ESTA Reporting Station
Light Rain Light Rain  
Wind Chill: 26°   Ceiling: 1700
Heat Index: 36°   Visibility: 6mi
Dew Point: 30°   Wind: 15mph
Humidity: 81%   Direction: 90°E
Pressure: 30.3"   Gusts: NA
Location:  56°N, 12.57°E
Report Text: ESTA 281650Z 09013KT 9999 -RA BKN017 OVC025 02/M01 Q1026
Loading
Personal Weather Stations






























Interactive Weather Map New forecast layout! Learn more

10-Day Weather Forecast

Advertisements
Track Severe Weather on mobile